Terminal Aerodrome Forecast
Issued by NWS

Home | Current Version | Previous Version | Text Only | Print | Product List | Glossary On
Versions: 1 2 3 4 5 6 7 8 9 10 11 12 13 14 15 16 17
000
FTUS42 KMLB 061120
TAFSUA
TAF
KSUA 061120Z 0612/0712 30008KT P6SM SKC
     FM061400 30011KT P6SM FEW040
     FM061600 32013G21KT P6SM FEW050
     FM070000 32006KT P6SM SKC=

USA.gov is the U.S. government's official web portal to all federal, state and local government web resources and services.